Terminal Aerodrome Forecast
Issued by NWS

Home | Current Version | Previous Version | Text Only | Print | Product List | Glossary On
Versions: 1 2 3 4 5 6 7 8 9 10 11 12 13 14 15 16 17 18 19 20 21 22 23 24 25 26 27 28 29 30 31 32 33 34 35 36 37 38 39 40 41 42 43 44 45 46 47 48 49 50
656
FTUS42 KMFL 111120
TAFOPF
TAF
KOPF 111120Z 1112/1212 07012KT P6SM VCSH SCT025 BKN035 OVC050
     FM111400 10016G26KT P6SM VCSH SCT020 BKN040 OVC060
     FM120200 11006KT P6SM SCT035 BKN050 BKN080=

USA.gov is the U.S. government's official web portal to all federal, state and local government web resources and services.